Airfield :
LOGIN :

Register | Disclaimer

   EN    FR    IT 

 










Legend :    VFR   Marginal VFR   IFR   Intensive IFR   Very Intensive IFR
Visi :
Ceiling :
>= 8 km
>= 3000ft
5 to 8 km
1000 to 3000 ft
1500m to 5 km
500 to 1000 ft
800 to 1500m
200 to 500 ft
< 800m
< 200 ft
Symbols :   Thunderstorms  Fog  Heavy snow  Heavy precipitations  Wind > 20 kt
SIGMETs :     Misc.  Thunderstorms  Icing  Turbulence  Mountain Waves  Volcanic Ashes






- Airport Elevation : 112 ft
- IATA code : SVQ


LEZL - Sevilla San Pablo

CURRENT METAR :
  • 030900Z 25004KT 180V320 9999 OVC015 22/18 Q1019 NOSIG

EXPIRED METARs :
  • 030830Z 24005KT 200V280 9000 OVC013 21/18 Q1019 NOSIG
  • 030800Z 26006KT 230V290 9000 OVC010 21/18 Q1019 NOSIG
  • 030730Z 24004KT 170V310 9000 OVC012 22/18 Q1018 NOSIG
  • 030700Z 24005KT 200V280 9999 OVC013 22/18 Q1018 NOSIG
  • 030630Z 24005KT 210V280 9999 OVC014 22/19 Q1018 NOSIG

TAF TAF LEZL
Valid from the 03 at 09:00 until the 04 at 09:00 UTC


030800Z 0309/0409 23009KT 9999 SCT020 TX32/0315Z TN19/0403Z
PROB40
TEMPO 0309/0311 BKN014



MET'MAP, your aeronautical weather chart ! - Copyright ORBIFLY December 2007 - Disclaimer

ORBIFLY MET'MAP TEAM :

Programming & Development : Alexandra Zaïnal
Original concept : Baudouin d'Aumeries
Technical & hardware support : Manuel Goepfert
Assistance : Marc-Olivier Méhu




SOURCES & CREDITS :

   NOAA